createdAt,value
2019-02-22T00:00:50.282Z,989.10
2019-02-22T00:01:50.199Z,989.10
2019-02-22T00:02:50.113Z,989.08
2019-02-22T00:03:50.031Z,989.07
2019-02-22T00:04:49.948Z,989.07
2019-02-22T00:05:49.866Z,989.11
2019-02-22T00:06:49.785Z,989.07
2019-02-22T00:07:49.695Z,989.07
2019-02-22T00:08:49.615Z,989.07
2019-02-22T00:09:49.946Z,989.10
2019-02-22T00:10:49.451Z,989.11
2019-02-22T00:11:49.363Z,989.08
2019-02-22T00:12:49.278Z,989.03
2019-02-22T00:13:49.196Z,989.02
2019-02-22T00:14:49.114Z,989.01
2019-02-22T00:15:49.032Z,989.00
2019-02-22T00:16:48.949Z,988.99
2019-02-22T00:17:48.862Z,989.00
2019-02-22T00:18:48.780Z,989.03
2019-02-22T00:19:48.819Z,989.00
2019-02-22T00:20:48.613Z,988.97
2019-02-22T00:21:48.531Z,988.86
2019-02-22T00:22:48.447Z,988.90
2019-02-22T00:23:48.362Z,988.88
2019-02-22T00:24:48.278Z,988.88
2019-02-22T00:25:48.196Z,988.85
2019-02-22T00:26:48.112Z,988.87
2019-02-22T00:27:48.028Z,988.85
2019-02-22T00:28:47.943Z,988.88
2019-02-22T00:29:47.861Z,988.88
2019-02-22T00:30:47.776Z,988.85
2019-02-22T00:31:47.693Z,988.87
2019-02-22T00:32:47.611Z,988.83
2019-02-22T00:33:47.528Z,988.82
2019-02-22T00:34:47.500Z,988.85
2019-02-22T00:35:47.417Z,988.81
2019-02-22T00:36:47.295Z,988.86
2019-02-22T00:37:47.199Z,988.83
2019-02-22T00:38:47.110Z,988.87
2019-02-22T00:39:47.029Z,988.91
2019-02-22T00:40:46.951Z,988.91
2019-02-22T00:41:46.862Z,988.91
2019-02-22T00:42:46.779Z,988.94
2019-02-22T00:43:46.692Z,988.96
2019-02-22T00:44:46.611Z,988.98
2019-02-22T00:45:46.526Z,989.00
2019-02-22T00:46:46.459Z,988.99
2019-02-22T00:47:46.355Z,988.98
2019-02-22T00:48:46.276Z,989.01
2019-02-22T00:49:46.195Z,988.96
2019-02-22T00:50:46.109Z,988.94
2019-02-22T00:51:46.026Z,988.97
2019-02-22T00:52:45.945Z,988.99
2019-02-22T00:53:45.861Z,988.94
2019-02-22T00:54:45.774Z,988.95
2019-02-22T00:55:45.691Z,988.90
2019-02-22T00:56:45.613Z,988.89
2019-02-22T00:57:45.529Z,988.90
2019-02-22T00:58:45.443Z,988.91
2019-02-22T00:59:45.359Z,988.91
2019-02-22T01:00:45.275Z,988.93
2019-02-22T01:01:45.193Z,988.92
2019-02-22T01:02:45.109Z,988.90
2019-02-22T01:03:45.030Z,988.93
2019-02-22T01:04:44.941Z,988.92
2019-02-22T01:05:44.862Z,988.96
2019-02-22T01:06:44.778Z,988.94
2019-02-22T01:07:44.696Z,988.95
2019-02-22T01:08:44.607Z,988.99
2019-02-22T01:09:44.520Z,988.95
2019-02-22T01:10:44.440Z,989.00
2019-02-22T01:11:44.355Z,988.97
2019-02-22T01:12:44.276Z,988.98
2019-02-22T01:13:44.191Z,988.98
2019-02-22T01:14:44.110Z,988.99
2019-02-22T01:15:44.027Z,988.94
2019-02-22T01:16:43.941Z,988.94
2019-02-22T01:17:43.859Z,988.89
2019-02-22T01:18:43.774Z,988.91
2019-02-22T01:19:43.698Z,988.91
2019-02-22T01:20:53.742Z,988.86
2019-02-22T01:21:43.523Z,988.86
2019-02-22T01:22:43.442Z,988.80
2019-02-22T01:23:43.370Z,988.82
2019-02-22T01:24:43.272Z,988.79
2019-02-22T01:25:43.192Z,988.85
2019-02-22T01:26:43.109Z,988.80
2019-02-22T01:27:43.026Z,988.80
2019-02-22T01:28:42.943Z,988.80
2019-02-22T01:29:42.859Z,988.77
2019-02-22T01:30:42.774Z,988.77
2019-02-22T01:31:42.705Z,988.76
2019-02-22T01:32:42.607Z,988.78
2019-02-22T01:33:42.523Z,988.78
2019-02-22T01:34:42.446Z,988.75
2019-02-22T01:35:42.356Z,988.77
2019-02-22T01:36:42.272Z,988.76
2019-02-22T01:37:42.189Z,988.76
2019-02-22T01:38:42.107Z,988.76
2019-02-22T01:39:42.021Z,988.75
2019-02-22T01:40:43.963Z,988.76
2019-02-22T01:41:41.860Z,988.75
2019-02-22T01:42:41.771Z,988.77
2019-02-22T01:43:41.689Z,988.78
2019-02-22T01:44:41.605Z,988.80
2019-02-22T01:45:41.527Z,988.80
2019-02-22T01:46:41.436Z,988.82
2019-02-22T01:47:41.383Z,988.81
2019-02-22T01:48:41.273Z,988.82
2019-02-22T01:49:41.192Z,988.79
2019-02-22T01:50:41.109Z,988.81
2019-02-22T01:51:41.017Z,988.83
2019-02-22T01:52:40.969Z,988.81
2019-02-22T01:53:40.850Z,988.79
2019-02-22T01:54:40.768Z,988.80
2019-02-22T01:55:40.683Z,988.82
2019-02-22T01:56:40.600Z,988.82
2019-02-22T01:57:40.523Z,988.82
2019-02-22T01:58:48.384Z,988.84
2019-02-22T01:59:40.347Z,988.86
2019-02-22T02:00:40.263Z,988.88
2019-02-22T02:01:40.184Z,988.82
2019-02-22T02:02:40.099Z,988.84
2019-02-22T02:03:40.014Z,988.88
2019-02-22T02:04:39.939Z,988.84
2019-02-22T02:05:39.846Z,988.90
2019-02-22T02:06:39.764Z,988.91
2019-02-22T02:07:39.679Z,988.91
2019-02-22T02:08:39.596Z,988.91
2019-02-22T02:09:39.514Z,988.86
2019-02-22T02:10:39.432Z,988.92
2019-02-22T02:11:39.347Z,988.88
2019-02-22T02:12:39.263Z,988.96
2019-02-22T02:13:39.181Z,988.87
2019-02-22T02:14:39.093Z,988.86
2019-02-22T02:15:39.006Z,988.96
2019-02-22T02:16:38.924Z,988.91
2019-02-22T02:17:38.844Z,988.87
2019-02-22T02:18:38.781Z,988.88
2019-02-22T02:19:38.675Z,988.92
2019-02-22T02:20:38.596Z,988.87
2019-02-22T02:21:38.513Z,988.90
2019-02-22T02:22:38.426Z,988.94
2019-02-22T02:23:38.341Z,988.87
2019-02-22T02:24:38.257Z,988.87
2019-02-22T02:25:38.173Z,988.95
2019-02-22T02:26:38.091Z,988.91
2019-02-22T02:27:38.004Z,988.96
2019-02-22T02:28:37.924Z,988.98
2019-02-22T02:29:37.842Z,988.92
2019-02-22T02:30:37.754Z,988.92
2019-02-22T02:31:37.671Z,988.93
2019-02-22T02:32:37.586Z,988.99
2019-02-22T02:33:37.503Z,988.93
2019-02-22T02:34:37.420Z,989.03
2019-02-22T02:35:37.336Z,988.97
2019-02-22T02:36:37.253Z,988.98
2019-02-22T02:37:37.166Z,989.00
2019-02-22T02:38:37.098Z,988.92
2019-02-22T02:39:37.005Z,989.04
2019-02-22T02:40:36.920Z,989.02
2019-02-22T02:41:36.833Z,988.97
2019-02-22T02:42:36.759Z,988.96
2019-02-22T02:43:36.667Z,988.96
2019-02-22T02:44:36.581Z,989.03
2019-02-22T02:45:36.499Z,989.04
2019-02-22T02:46:36.416Z,988.95
2019-02-22T02:47:36.332Z,988.96
2019-02-22T02:48:36.245Z,988.94
2019-02-22T02:49:36.164Z,989.00
2019-02-22T02:50:36.079Z,988.96
2019-02-22T02:51:35.996Z,988.95
2019-02-22T02:52:35.911Z,988.95
2019-02-22T02:53:35.827Z,989.01
2019-02-22T02:54:35.744Z,988.98
2019-02-22T02:55:35.661Z,988.93
2019-02-22T02:56:35.579Z,988.95
2019-02-22T02:57:35.493Z,988.96
2019-02-22T02:58:35.412Z,988.99
2019-02-22T02:59:35.325Z,988.91
2019-02-22T03:00:35.241Z,988.94
2019-02-22T03:01:35.156Z,988.98
2019-02-22T03:02:35.075Z,988.99
2019-02-22T03:03:34.988Z,988.98
2019-02-22T03:04:34.904Z,989.00
2019-02-22T03:05:34.823Z,988.99
2019-02-22T03:06:34.739Z,989.03
2019-02-22T03:07:34.652Z,989.01
2019-02-22T03:08:34.614Z,989.01
2019-02-22T03:09:34.487Z,989.01
2019-02-22T03:10:34.406Z,989.04
2019-02-22T03:11:34.315Z,989.06
2019-02-22T03:12:34.239Z,989.08
2019-02-22T03:13:34.201Z,989.10
2019-02-22T03:14:34.068Z,989.11
2019-02-22T03:15:33.982Z,989.04
2019-02-22T03:16:33.909Z,988.99
2019-02-22T03:17:33.809Z,989.03
2019-02-22T03:18:33.731Z,989.02
2019-02-22T03:19:33.647Z,988.98
2019-02-22T03:20:33.562Z,989.02
2019-02-22T03:21:33.480Z,989.03
2019-02-22T03:22:33.398Z,989.03
2019-02-22T03:23:33.308Z,989.05
2019-02-22T03:24:33.226Z,989.06
2019-02-22T03:25:33.155Z,989.09
2019-02-22T03:26:33.058Z,989.13
2019-02-22T03:27:32.977Z,989.12
2019-02-22T03:28:32.893Z,989.12
2019-02-22T03:29:32.814Z,989.15
2019-02-22T03:30:32.730Z,989.12
2019-02-22T03:31:32.649Z,989.17
2019-02-22T03:32:32.556Z,989.17
2019-02-22T03:33:32.484Z,989.20
2019-02-22T03:34:32.398Z,989.15
2019-02-22T03:35:32.301Z,989.18
2019-02-22T03:36:32.221Z,989.19
2019-02-22T03:37:32.137Z,989.17
2019-02-22T03:38:32.057Z,989.18
2019-02-22T03:39:31.966Z,989.15
2019-02-22T03:40:31.879Z,989.11
2019-02-22T03:41:33.240Z,989.07
2019-02-22T03:42:31.715Z,989.09
2019-02-22T03:43:31.630Z,989.09
2019-02-22T03:44:31.548Z,989.07
2019-02-22T03:45:31.465Z,989.09
2019-02-22T03:46:31.388Z,989.08
2019-02-22T03:47:31.296Z,989.05
2019-02-22T03:48:31.204Z,989.04
2019-02-22T03:49:31.130Z,989.04
2019-02-22T03:50:31.048Z,989.05
2019-02-22T03:51:30.965Z,989.05
2019-02-22T03:52:30.880Z,989.04
2019-02-22T03:53:30.794Z,989.09
2019-02-22T03:54:30.715Z,989.10
2019-02-22T03:55:30.627Z,989.07
2019-02-22T03:56:30.542Z,989.11
2019-02-22T03:57:30.461Z,989.08
2019-02-22T03:58:30.376Z,989.08
2019-02-22T03:59:30.289Z,989.09
2019-02-22T04:00:30.215Z,989.09
2019-02-22T04:01:30.131Z,989.11
2019-02-22T04:02:30.043Z,989.12
2019-02-22T04:03:29.958Z,989.14
2019-02-22T04:04:29.869Z,989.11
2019-02-22T04:05:29.786Z,989.11
2019-02-22T04:06:29.701Z,989.14
2019-02-22T04:07:29.615Z,989.18
2019-02-22T04:08:29.533Z,989.14
2019-02-22T04:09:29.449Z,989.12
2019-02-22T04:10:29.369Z,989.15
2019-02-22T04:11:29.280Z,989.15
2019-02-22T04:12:29.198Z,989.16
2019-02-22T04:13:29.182Z,989.16
2019-02-22T04:14:29.031Z,989.19
2019-02-22T04:15:28.945Z,989.19
2019-02-22T04:16:28.864Z,989.21
2019-02-22T04:17:28.778Z,989.21
2019-02-22T04:18:28.694Z,989.22
2019-02-22T04:19:28.609Z,989.18
2019-02-22T04:20:28.524Z,989.20
2019-02-22T04:21:28.449Z,989.19
2019-02-22T04:22:28.355Z,989.24
2019-02-22T04:23:28.280Z,989.24
2019-02-22T04:24:28.189Z,989.25
2019-02-22T04:25:28.104Z,989.23
2019-02-22T04:27:59.530Z,989.23
2019-02-22T04:28:59.428Z,989.22
2019-02-22T04:31:03.229Z,989.14
2019-02-22T04:32:03.138Z,989.13
2019-02-22T04:34:06.945Z,989.12
2019-02-22T04:35:06.846Z,989.11
2019-02-22T04:37:10.649Z,989.16
2019-02-22T04:38:10.554Z,989.13
2019-02-22T04:40:14.349Z,989.13
2019-02-22T04:41:14.260Z,989.12
2019-02-22T04:43:18.068Z,989.11
2019-02-22T04:44:17.971Z,989.14
2019-02-22T04:46:21.767Z,989.12
2019-02-22T04:47:21.680Z,989.11
2019-02-22T04:49:25.492Z,989.18
2019-02-22T04:50:25.398Z,989.14
2019-02-22T04:51:25.310Z,989.19
2019-02-22T04:52:25.228Z,989.24
2019-02-22T04:53:25.141Z,989.32
2019-02-22T04:54:25.059Z,989.19
2019-02-22T04:55:24.976Z,989.23
2019-02-22T04:56:24.893Z,989.21
2019-02-22T04:57:24.811Z,989.20
2019-02-22T04:58:24.720Z,989.22
2019-02-22T04:59:24.637Z,989.26
2019-02-22T05:00:24.555Z,989.25
2019-02-22T05:01:24.468Z,989.29
2019-02-22T05:02:24.384Z,989.32
2019-02-22T05:03:24.300Z,989.37
2019-02-22T05:04:24.214Z,989.42
2019-02-22T05:05:24.162Z,989.41
2019-02-22T05:06:24.048Z,989.40
2019-02-22T05:07:23.966Z,989.56
2019-02-22T05:08:23.881Z,989.48
2019-02-22T05:09:23.795Z,989.49
2019-02-22T05:10:23.712Z,989.45
2019-02-22T05:11:23.627Z,989.46
2019-02-22T05:12:23.545Z,989.49
2019-02-22T05:13:23.459Z,989.48
2019-02-22T05:14:23.376Z,989.54
2019-02-22T05:15:23.291Z,989.53
2019-02-22T05:16:23.207Z,989.55
2019-02-22T05:17:23.130Z,989.59
2019-02-22T05:18:23.041Z,989.57
2019-02-22T05:19:22.955Z,989.51
2019-02-22T05:20:22.871Z,989.50
2019-02-22T05:21:22.802Z,989.54
2019-02-22T05:22:22.705Z,989.54
2019-02-22T05:23:22.619Z,989.52
2019-02-22T05:24:22.534Z,989.49
2019-02-22T05:25:22.450Z,989.47
2019-02-22T05:26:22.372Z,989.56
2019-02-22T05:27:22.282Z,989.58
2019-02-22T05:28:22.199Z,989.59
2019-02-22T05:29:22.112Z,989.51
2019-02-22T05:30:22.032Z,989.59
2019-02-22T05:31:21.946Z,989.63
2019-02-22T05:32:21.862Z,989.57
2019-02-22T05:33:21.780Z,989.61
2019-02-22T05:34:21.699Z,989.56
2019-02-22T05:35:21.612Z,989.57
2019-02-22T05:36:21.526Z,989.61
2019-02-22T05:37:21.445Z,989.59
2019-02-22T05:38:21.361Z,989.65
2019-02-22T05:39:21.277Z,989.62
2019-02-22T05:40:21.193Z,989.56
2019-02-22T05:41:21.111Z,989.61
2019-02-22T05:42:23.184Z,989.59
2019-02-22T05:43:20.941Z,989.57
2019-02-22T05:44:20.857Z,989.66
2019-02-22T05:45:20.775Z,989.63
2019-02-22T05:46:20.685Z,989.64
2019-02-22T05:47:20.606Z,989.64
2019-02-22T05:48:20.524Z,989.63
2019-02-22T05:49:22.323Z,989.66
2019-02-22T05:50:20.355Z,989.74
2019-02-22T05:51:20.269Z,989.71
2019-02-22T05:52:20.223Z,989.66
2019-02-22T05:53:20.106Z,989.76
2019-02-22T05:54:20.020Z,989.63
2019-02-22T05:55:19.935Z,989.61
2019-02-22T05:56:19.851Z,989.66
2019-02-22T05:57:19.772Z,989.62
2019-02-22T05:58:19.685Z,989.62
2019-02-22T05:59:19.605Z,989.63
2019-02-22T06:00:19.517Z,989.73
2019-02-22T06:01:19.440Z,989.65
2019-02-22T06:02:19.355Z,989.67
2019-02-22T06:03:19.267Z,989.79
2019-02-22T06:04:19.178Z,989.80
2019-02-22T06:05:19.098Z,989.88
2019-02-22T06:06:19.023Z,989.89
2019-02-22T06:07:18.945Z,989.86
2019-02-22T06:08:18.863Z,989.92
2019-02-22T06:09:18.769Z,989.97
2019-02-22T06:10:18.682Z,989.97
2019-02-22T06:11:18.601Z,990.04
2019-02-22T06:12:18.770Z,990.08
2019-02-22T06:13:18.429Z,990.10
2019-02-22T06:14:18.348Z,990.10
2019-02-22T06:15:18.270Z,990.14
2019-02-22T06:16:18.182Z,990.16
2019-02-22T06:17:18.097Z,990.17
2019-02-22T06:18:18.015Z,990.17
2019-02-22T06:19:17.929Z,990.24
2019-02-22T06:20:17.857Z,990.29
2019-02-22T06:21:17.763Z,990.33
2019-02-22T06:22:28.788Z,990.36
2019-02-22T06:23:17.597Z,990.40
2019-02-22T06:24:17.516Z,990.32
2019-02-22T06:25:17.432Z,990.42
2019-02-22T06:26:17.350Z,990.39
2019-02-22T06:27:17.262Z,990.37
2019-02-22T06:28:17.181Z,990.45
2019-02-22T06:29:17.093Z,990.42
2019-02-22T06:30:17.022Z,990.46
2019-02-22T06:31:16.933Z,990.46
2019-02-22T06:32:16.847Z,990.46
2019-02-22T06:33:16.764Z,990.48
2019-02-22T06:34:16.680Z,990.54
2019-02-22T06:35:16.599Z,990.52
2019-02-22T06:36:16.514Z,990.55
2019-02-22T06:37:16.432Z,990.55
2019-02-22T06:38:16.350Z,990.55
2019-02-22T06:39:16.266Z,990.51
2019-02-22T06:40:16.180Z,990.52
2019-02-22T06:41:16.103Z,990.54
2019-02-22T06:42:16.014Z,990.56
2019-02-22T06:43:15.933Z,990.53
2019-02-22T06:44:15.848Z,990.55
2019-02-22T06:45:15.771Z,990.60
2019-02-22T06:46:15.683Z,990.61
2019-02-22T06:47:15.600Z,990.63
2019-02-22T06:48:15.514Z,990.57
2019-02-22T06:49:15.433Z,990.62
2019-02-22T06:50:15.353Z,990.63
2019-02-22T06:51:15.270Z,990.62
2019-02-22T06:52:15.186Z,990.64
2019-02-22T06:53:15.098Z,990.68
2019-02-22T06:54:15.020Z,990.71
2019-02-22T06:55:14.931Z,990.74
2019-02-22T06:56:14.849Z,990.71
2019-02-22T06:57:14.767Z,990.73
2019-02-22T06:58:14.683Z,990.77
2019-02-22T06:59:14.598Z,990.76
2019-02-22T07:00:14.517Z,990.72
2019-02-22T07:01:14.431Z,990.73
2019-02-22T07:02:14.349Z,990.74
2019-02-22T07:03:14.275Z,990.72
2019-02-22T07:04:14.182Z,990.78
2019-02-22T07:05:14.098Z,990.81
2019-02-22T07:06:14.016Z,990.82
2019-02-22T07:07:13.940Z,990.82
2019-02-22T07:08:13.849Z,990.86
2019-02-22T07:09:13.765Z,990.83
2019-02-22T07:10:13.687Z,990.90
2019-02-22T07:11:13.597Z,990.87
2019-02-22T07:12:13.511Z,990.88
2019-02-22T07:13:13.430Z,990.92
2019-02-22T07:14:13.348Z,990.88
2019-02-22T07:15:13.268Z,990.97
2019-02-22T07:16:13.181Z,990.92
2019-02-22T07:17:13.096Z,990.95
2019-02-22T07:18:13.014Z,990.96
2019-02-22T07:19:12.931Z,990.99
2019-02-22T07:20:12.893Z,991.05
2019-02-22T07:21:12.767Z,991.04
2019-02-22T07:22:12.676Z,991.06
2019-02-22T07:23:12.597Z,991.02
2019-02-22T07:24:12.527Z,991.06
2019-02-22T07:25:12.479Z,991.07
2019-02-22T07:26:12.343Z,991.05
2019-02-22T07:27:12.288Z,991.09
2019-02-22T07:28:12.190Z,991.15
2019-02-22T07:29:12.096Z,991.09
2019-02-22T07:30:12.016Z,991.13
2019-02-22T07:31:11.934Z,991.06
2019-02-22T07:32:11.843Z,991.00
2019-02-22T07:33:11.777Z,990.99
2019-02-22T07:34:11.762Z,991.01
2019-02-22T07:35:14.051Z,991.07
2019-02-22T07:36:11.511Z,991.09
2019-02-22T07:37:11.429Z,991.10
2019-02-22T07:38:11.344Z,991.12
2019-02-22T07:39:11.262Z,991.16
2019-02-22T07:40:11.178Z,991.14
2019-02-22T07:41:11.096Z,991.22
2019-02-22T07:42:11.015Z,991.22
2019-02-22T07:43:10.928Z,991.30
2019-02-22T07:44:10.847Z,991.35
2019-02-22T07:45:10.759Z,991.32
2019-02-22T07:46:10.702Z,991.40
2019-02-22T07:47:10.596Z,991.37
2019-02-22T07:48:10.510Z,991.36
2019-02-22T07:49:10.432Z,991.41
2019-02-22T07:50:10.345Z,991.42
2019-02-22T07:51:10.262Z,991.46
2019-02-22T07:52:10.184Z,991.41
2019-02-22T07:53:10.116Z,991.46
2019-02-22T07:54:10.013Z,991.52
2019-02-22T07:55:09.932Z,991.57
2019-02-22T07:56:09.844Z,991.55
2019-02-22T07:57:09.763Z,991.51
2019-02-22T07:58:09.682Z,991.52
2019-02-22T07:59:09.600Z,991.51
2019-02-22T08:00:09.513Z,991.55
2019-02-22T08:01:09.431Z,991.54
2019-02-22T08:02:09.347Z,991.56
2019-02-22T08:03:09.265Z,991.65
2019-02-22T08:04:09.181Z,991.62
2019-02-22T08:05:09.329Z,991.61
2019-02-22T08:06:09.016Z,991.61
2019-02-22T08:07:08.933Z,991.62
2019-02-22T08:08:08.848Z,991.56
2019-02-22T08:09:08.766Z,991.55
2019-02-22T08:10:08.689Z,991.59
2019-02-22T08:11:08.600Z,991.60
2019-02-22T08:12:08.515Z,991.61
2019-02-22T08:13:19.225Z,991.65
2019-02-22T08:14:08.350Z,991.64
2019-02-22T08:15:08.270Z,991.63
2019-02-22T08:16:08.186Z,991.68
2019-02-22T08:17:08.108Z,991.72
2019-02-22T08:18:08.019Z,991.73
2019-02-22T08:19:07.938Z,991.76
2019-02-22T08:20:07.852Z,991.78
2019-02-22T08:21:07.771Z,991.85
2019-02-22T08:22:07.687Z,991.84
2019-02-22T08:23:07.606Z,991.84
2019-02-22T08:24:07.523Z,991.84
2019-02-22T08:25:07.441Z,991.85
2019-02-22T08:26:07.356Z,991.82
2019-02-22T08:27:07.316Z,991.86
2019-02-22T08:28:07.185Z,991.87
2019-02-22T08:29:07.118Z,991.83
2019-02-22T08:30:07.025Z,991.87
2019-02-22T08:31:06.946Z,991.89
2019-02-22T08:32:06.860Z,991.90
2019-02-22T08:33:06.785Z,991.84
2019-02-22T08:34:06.695Z,991.84
2019-02-22T08:35:06.614Z,991.85
2019-02-22T08:36:06.531Z,991.84
2019-02-22T08:37:06.447Z,991.82
2019-02-22T08:38:06.367Z,991.83
2019-02-22T08:39:06.286Z,991.85
2019-02-22T08:40:06.201Z,991.87
2019-02-22T08:41:06.118Z,991.91
2019-02-22T08:42:06.038Z,991.91
2019-02-22T08:43:05.954Z,991.94
2019-02-22T08:44:05.871Z,991.90
2019-02-22T08:45:05.790Z,991.89
2019-02-22T08:46:05.710Z,991.94
2019-02-22T08:47:05.626Z,991.90
2019-02-22T08:48:05.542Z,991.95
2019-02-22T08:49:05.461Z,991.89
2019-02-22T08:50:05.381Z,991.91
2019-02-22T08:51:05.299Z,991.96
2019-02-22T08:52:05.212Z,992.00
2019-02-22T08:53:05.130Z,991.94
2019-02-22T08:54:05.047Z,991.94
2019-02-22T08:55:04.966Z,992.02
2019-02-22T08:56:04.887Z,991.98
2019-02-22T08:57:04.800Z,991.99
2019-02-22T08:58:04.721Z,992.00
2019-02-22T08:59:04.639Z,992.05
2019-02-22T09:00:04.555Z,992.08
2019-02-22T09:01:04.466Z,992.08
2019-02-22T09:02:04.390Z,992.09
2019-02-22T09:03:04.309Z,992.01
2019-02-22T09:04:04.232Z,992.06
2019-02-22T09:05:04.144Z,992.09
2019-02-22T09:06:04.064Z,992.08
2019-02-22T09:07:03.981Z,992.07
2019-02-22T09:08:03.895Z,992.14
2019-02-22T09:09:03.812Z,992.13
2019-02-22T09:10:03.731Z,992.14
2019-02-22T09:11:03.650Z,992.12
2019-02-22T09:12:03.570Z,992.08
2019-02-22T09:13:03.483Z,992.17
2019-02-22T09:14:03.401Z,992.19
2019-02-22T09:15:03.319Z,992.19
2019-02-22T09:16:03.236Z,992.21
2019-02-22T09:17:03.175Z,992.19
2019-02-22T09:18:03.071Z,992.23
2019-02-22T09:19:02.988Z,992.25
2019-02-22T09:20:02.914Z,992.25
2019-02-22T09:21:02.823Z,992.28
2019-02-22T09:22:02.746Z,992.28
2019-02-22T09:23:02.661Z,992.22
2019-02-22T09:24:02.573Z,992.29
2019-02-22T09:25:02.493Z,992.30
2019-02-22T09:26:02.412Z,992.28
2019-02-22T09:27:02.331Z,992.26
2019-02-22T09:28:02.247Z,992.21
2019-02-22T09:29:02.167Z,992.30
2019-02-22T09:30:02.084Z,992.31
2019-02-22T09:31:02.007Z,992.24
2019-02-22T09:32:01.919Z,992.28
2019-02-22T09:33:01.838Z,992.30
2019-02-22T09:34:01.759Z,992.36
2019-02-22T09:35:01.678Z,992.33
2019-02-22T09:36:01.595Z,992.32
2019-02-22T09:37:01.513Z,992.39
2019-02-22T09:38:01.431Z,992.34
2019-02-22T09:39:01.349Z,992.33
2019-02-22T09:40:01.271Z,992.44
2019-02-22T09:41:01.221Z,992.37
2019-02-22T09:42:01.107Z,992.42
2019-02-22T09:43:01.025Z,992.43
2019-02-22T09:44:00.941Z,992.41
2019-02-22T09:45:00.865Z,992.51
2019-02-22T09:46:00.833Z,992.54
2019-02-22T09:47:00.698Z,992.49
2019-02-22T09:48:00.615Z,992.53
2019-02-22T09:49:00.536Z,992.58
2019-02-22T09:50:00.452Z,992.56
2019-02-22T09:51:00.374Z,992.59
2019-02-22T09:52:00.290Z,992.63
2019-02-22T09:53:00.207Z,992.67
2019-02-22T09:54:00.126Z,992.68
2019-02-22T09:55:00.043Z,992.73
2019-02-22T09:55:59.964Z,992.73
2019-02-22T09:57:01.926Z,992.83
2019-02-22T09:57:59.799Z,992.77
2019-02-22T09:58:59.718Z,992.82
2019-02-22T09:59:59.635Z,992.79
2019-02-22T10:00:59.553Z,992.82
2019-02-22T10:01:59.471Z,992.83
2019-02-22T10:02:59.393Z,992.81
2019-02-22T10:03:59.307Z,992.86
2019-02-22T10:04:59.230Z,992.87
2019-02-22T10:05:59.144Z,992.95
2019-02-22T10:06:59.067Z,992.88
2019-02-22T10:07:58.981Z,992.86
2019-02-22T10:08:58.901Z,992.89
2019-02-22T10:09:58.820Z,992.95
2019-02-22T10:10:58.741Z,992.88
2019-02-22T10:11:58.656Z,992.90
2019-02-22T10:12:58.579Z,992.94
2019-02-22T10:14:06.290Z,992.98
2019-02-22T10:14:58.410Z,992.98
2019-02-22T10:15:58.335Z,992.95
2019-02-22T10:16:58.248Z,993.01
2019-02-22T10:17:58.167Z,992.98
2019-02-22T10:18:58.086Z,992.98
2019-02-22T10:19:58.004Z,993.03
2019-02-22T10:20:57.923Z,992.99
2019-02-22T10:21:57.864Z,992.99
2019-02-22T10:22:57.761Z,993.04
2019-02-22T10:23:57.676Z,992.99
2019-02-22T10:24:57.596Z,993.00
2019-02-22T10:25:57.515Z,993.00
2019-02-22T10:28:31.968Z,992.97
2019-02-22T10:29:31.856Z,993.06
2019-02-22T10:31:36.255Z,993.02
2019-02-22T10:32:36.135Z,993.07
2019-02-22T10:34:42.949Z,993.06
2019-02-22T10:35:42.870Z,993.07
2019-02-22T10:37:48.262Z,993.08
2019-02-22T10:38:48.117Z,993.13
2019-02-22T10:40:55.115Z,993.13
2019-02-22T10:41:54.801Z,993.12
2019-02-22T10:42:54.697Z,993.12
2019-02-22T10:43:54.626Z,993.14
2019-02-22T10:44:54.685Z,993.12
2019-02-22T10:45:54.440Z,993.18
2019-02-22T10:46:54.362Z,993.20
2019-02-22T10:47:54.277Z,993.23
2019-02-22T10:48:54.208Z,993.25
2019-02-22T10:49:54.125Z,993.24
2019-02-22T10:50:54.036Z,993.23
2019-02-22T10:51:53.956Z,993.26
2019-02-22T10:53:01.700Z,993.19
2019-02-22T10:53:53.796Z,993.18
2019-02-22T10:54:53.716Z,993.21
2019-02-22T10:55:53.644Z,993.22
2019-02-22T10:56:53.558Z,993.25
2019-02-22T10:57:53.476Z,993.28
2019-02-22T10:58:53.396Z,993.34
2019-02-22T10:59:53.314Z,993.26
2019-02-22T11:00:53.229Z,993.24
2019-02-22T11:01:53.154Z,993.22
2019-02-22T11:02:53.073Z,993.23
2019-02-22T11:03:53.001Z,993.25
2019-02-22T11:04:52.916Z,993.29
2019-02-22T11:05:52.839Z,993.27
2019-02-22T11:06:52.754Z,993.27
2019-02-22T11:07:52.687Z,993.32
2019-02-22T11:08:52.593Z,993.31
2019-02-22T11:09:52.519Z,993.31
2019-02-22T11:10:52.433Z,993.30
2019-02-22T11:11:52.359Z,993.33
2019-02-22T11:12:52.280Z,993.33
2019-02-22T11:13:52.200Z,993.33
2019-02-22T11:14:52.122Z,993.38
2019-02-22T11:15:52.038Z,993.39
2019-02-22T11:16:51.962Z,993.42
2019-02-22T11:17:51.883Z,993.41
2019-02-22T11:18:51.804Z,993.44
2019-02-22T11:19:51.723Z,993.49
2019-02-22T11:20:51.645Z,993.52
2019-02-22T11:21:51.559Z,993.51
2019-02-22T11:22:51.483Z,993.47
2019-02-22T11:23:51.402Z,993.46
2019-02-22T11:24:51.324Z,993.46
2019-02-22T11:25:51.246Z,993.47
2019-02-22T11:26:51.166Z,993.56
2019-02-22T11:27:51.091Z,993.50
2019-02-22T11:28:51.006Z,993.53
2019-02-22T11:29:50.933Z,993.57
2019-02-22T11:30:50.845Z,993.55
2019-02-22T11:31:50.764Z,993.56
2019-02-22T11:32:50.685Z,993.55
2019-02-22T11:33:50.601Z,993.58
2019-02-22T11:34:50.522Z,993.57
2019-02-22T11:35:50.443Z,993.55
2019-02-22T11:36:50.374Z,993.53
2019-02-22T11:37:50.286Z,993.55
2019-02-22T11:38:50.203Z,993.54
2019-02-22T11:39:50.118Z,993.64
2019-02-22T11:40:50.043Z,993.59
2019-02-22T11:41:49.960Z,993.65
2019-02-22T11:42:49.877Z,993.57
2019-02-22T11:43:49.795Z,993.58
2019-02-22T11:44:49.715Z,993.58
2019-02-22T11:45:50.037Z,993.56
2019-02-22T11:46:49.553Z,993.56
2019-02-22T11:47:49.474Z,993.55
2019-02-22T11:48:49.392Z,993.61
2019-02-22T11:49:49.312Z,993.58
2019-02-22T11:50:49.227Z,993.56
2019-02-22T11:51:49.149Z,993.60
2019-02-22T11:52:49.068Z,993.66
2019-02-22T11:53:48.989Z,993.65
2019-02-22T11:54:48.907Z,993.67
2019-02-22T11:55:48.827Z,993.70
2019-02-22T11:56:48.745Z,993.71
2019-02-22T11:57:48.669Z,993.77
2019-02-22T11:58:48.587Z,993.74
2019-02-22T11:59:48.511Z,993.73
2019-02-22T12:00:48.424Z,993.77
2019-02-22T12:01:48.371Z,993.74
2019-02-22T12:02:48.267Z,993.81
2019-02-22T12:03:48.187Z,993.74
2019-02-22T12:04:48.105Z,993.76
2019-02-22T12:05:48.093Z,993.78
2019-02-22T12:06:48.102Z,993.73
2019-02-22T12:07:48.200Z,993.79
2019-02-22T12:08:47.787Z,993.78
2019-02-22T12:09:47.704Z,993.82
2019-02-22T12:10:47.622Z,993.77
2019-02-22T12:11:47.537Z,993.79
2019-02-22T12:12:47.460Z,993.77
2019-02-22T12:13:47.382Z,993.77
2019-02-22T12:14:51.951Z,993.76
2019-02-22T12:15:47.217Z,993.70
2019-02-22T12:16:47.141Z,993.78
2019-02-22T12:17:47.061Z,993.74
2019-02-22T12:18:47.232Z,993.78
2019-02-22T12:19:47.068Z,993.81
2019-02-22T12:20:46.818Z,993.77
2019-02-22T12:21:46.742Z,993.78
2019-02-22T12:22:46.656Z,993.73
2019-02-22T12:23:46.575Z,993.78
2019-02-22T12:24:46.494Z,993.76
2019-02-22T12:25:46.409Z,993.78
2019-02-22T12:26:46.330Z,993.80
2019-02-22T12:27:46.257Z,993.81
2019-02-22T12:28:46.171Z,993.85
2019-02-22T12:29:46.117Z,993.86
2019-02-22T12:30:46.014Z,993.93
2019-02-22T12:31:45.929Z,993.95
2019-02-22T12:32:45.846Z,993.98
2019-02-22T12:33:45.765Z,994.01
2019-02-22T12:34:45.687Z,993.96
2019-02-22T12:35:45.605Z,994.00
2019-02-22T12:36:45.526Z,994.01
2019-02-22T12:37:45.445Z,994.01
2019-02-22T12:38:45.365Z,993.98
2019-02-22T12:39:45.283Z,994.00
2019-02-22T12:40:45.205Z,994.03
2019-02-22T12:41:45.124Z,994.03
2019-02-22T12:42:45.046Z,994.01